createdAt,value
2023-01-01T00:01:38.084Z,8.82
2023-01-01T00:04:04.650Z,7.32
2023-01-01T00:06:31.023Z,8.05
2023-01-01T00:08:57.402Z,8.50
2023-01-01T00:11:23.753Z,7.10
2023-01-01T00:13:50.369Z,7.43
2023-01-01T00:16:18.127Z,6.15
2023-01-01T00:18:44.517Z,6.28
2023-01-01T00:21:13.655Z,7.50
2023-01-01T00:23:40.851Z,6.45
2023-01-01T00:26:09.805Z,4.97
2023-01-01T00:28:36.248Z,6.97
2023-01-01T00:31:06.334Z,4.60
2023-01-01T00:33:34.142Z,5.20
2023-01-01T00:36:06.153Z,4.85
2023-01-01T00:38:32.960Z,4.10
2023-01-01T00:40:59.348Z,5.45
2023-01-01T00:43:25.719Z,5.95
2023-01-01T00:45:52.170Z,3.70
2023-01-01T00:48:18.976Z,4.47
2023-01-01T00:50:46.717Z,4.53
2023-01-01T00:53:13.637Z,4.05
2023-01-01T00:55:40.185Z,4.30
2023-01-01T00:58:06.846Z,4.60
2023-01-01T01:00:33.384Z,4.47
2023-01-01T01:03:00.802Z,3.70
2023-01-01T01:05:27.424Z,3.80
2023-01-01T01:07:55.112Z,4.13
2023-01-01T01:10:21.479Z,4.78
2023-01-01T01:12:48.010Z,3.83
2023-01-01T01:15:14.685Z,3.78
2023-01-01T01:17:41.418Z,4.13
2023-01-01T01:20:08.968Z,5.05
2023-01-01T01:22:35.478Z,3.85
2023-01-01T01:25:03.445Z,4.93
2023-01-01T01:27:30.127Z,4.25
2023-01-01T01:29:56.462Z,4.20
2023-01-01T01:32:22.872Z,5.03
2023-01-01T01:34:49.331Z,4.22
2023-01-01T01:37:15.707Z,4.70
2023-01-01T01:39:42.075Z,4.75
2023-01-01T01:42:16.372Z,4.95
2023-01-01T01:45:01.139Z,4.80
2023-01-01T01:47:32.291Z,4.57
2023-01-01T01:50:05.788Z,4.97
2023-01-01T01:52:36.172Z,4.85
2023-01-01T01:55:04.759Z,5.22
2023-01-01T01:57:33.880Z,5.28
2023-01-01T02:00:08.710Z,5.95
2023-01-01T02:02:42.330Z,6.10
2023-01-01T02:05:09.207Z,5.57
2023-01-01T02:07:36.260Z,5.47
2023-01-01T02:10:02.930Z,5.47
2023-01-01T02:12:29.404Z,5.35
2023-01-01T02:14:57.144Z,5.97
2023-01-01T02:17:36.966Z,5.28
2023-01-01T02:20:22.629Z,5.80
2023-01-01T02:23:05.409Z,5.53
2023-01-01T02:25:42.543Z,5.63
2023-01-01T02:28:15.739Z,4.80
2023-01-01T02:30:45.450Z,5.88
2023-01-01T02:33:17.905Z,5.63
2023-01-01T02:35:50.195Z,5.50
2023-01-01T02:38:23.256Z,6.05
2023-01-01T02:40:52.869Z,5.88
2023-01-01T02:43:24.575Z,5.60
2023-01-01T02:45:53.319Z,5.32
2023-01-01T02:48:50.959Z,4.85
2023-01-01T02:51:35.610Z,5.35
2023-01-01T02:54:08.739Z,4.85
2023-01-01T02:56:40.160Z,4.72
2023-01-01T02:59:21.333Z,5.55
2023-01-01T03:01:56.572Z,5.18
2023-01-01T03:04:28.708Z,5.07
2023-01-01T03:07:02.075Z,5.32
2023-01-01T03:09:38.370Z,5.55
2023-01-01T03:12:09.833Z,5.80
2023-01-01T03:14:42.873Z,5.45
2023-01-01T03:19:42.015Z,5.75
2023-01-01T03:22:13.160Z,5.25
2023-01-01T03:24:45.170Z,5.40
2023-01-01T03:27:15.569Z,5.32
2023-01-01T03:29:45.198Z,5.10
2023-01-01T03:32:17.750Z,4.88
2023-01-01T03:34:51.376Z,5.13
2023-01-01T03:37:24.970Z,4.65
2023-01-01T03:39:55.943Z,5.65
2023-01-01T03:42:28.985Z,4.78
2023-01-01T03:45:01.420Z,5.50
2023-01-01T03:47:29.803Z,4.55
2023-01-01T03:49:57.241Z,4.28
2023-01-01T03:52:34.668Z,4.85
2023-01-01T03:55:08.932Z,4.05
2023-01-01T03:57:42.649Z,3.47
2023-01-01T04:00:12.432Z,4.22
2023-01-01T04:02:44.828Z,4.20
2023-01-01T04:05:12.296Z,3.55
2023-01-01T04:07:39.031Z,4.07
2023-01-01T04:10:07.529Z,3.45
2023-01-01T04:12:34.746Z,4.00
2023-01-01T04:15:01.117Z,3.85
2023-01-01T04:17:27.467Z,3.50
2023-01-01T04:19:55.512Z,3.70
2023-01-01T04:22:22.027Z,3.50
2023-01-01T04:24:48.430Z,3.05
2023-01-01T04:27:14.814Z,3.30
2023-01-01T04:29:41.167Z,3.33
2023-01-01T04:32:07.810Z,3.90
2023-01-01T04:34:34.214Z,3.83
2023-01-01T04:37:01.892Z,2.92
2023-01-01T04:39:28.312Z,2.90
2023-01-01T04:41:54.664Z,3.03
2023-01-01T04:44:21.014Z,2.83
2023-01-01T04:46:47.400Z,3.33
2023-01-01T04:49:13.761Z,2.83
2023-01-01T04:51:40.145Z,3.10
2023-01-01T04:54:08.178Z,2.97
2023-01-01T04:56:34.597Z,2.72
2023-01-01T04:59:00.957Z,2.42
2023-01-01T05:01:29.191Z,3.22
2023-01-01T05:03:56.711Z,2.90
2023-01-01T05:06:23.962Z,2.83
2023-01-01T05:08:52.773Z,2.95
2023-01-01T05:11:21.881Z,3.05
2023-01-01T05:13:50.158Z,2.33
2023-01-01T05:16:18.378Z,3.08
2023-01-01T05:18:45.369Z,2.40
2023-01-01T05:21:13.842Z,2.65
2023-01-01T05:23:40.830Z,2.30
2023-01-01T05:26:11.484Z,2.95
2023-01-01T05:28:39.813Z,3.10
2023-01-01T05:31:07.445Z,2.63
2023-01-01T05:33:34.495Z,2.92
2023-01-01T05:36:01.517Z,2.10
2023-01-01T05:38:28.207Z,2.75
2023-01-01T05:40:54.650Z,2.40
2023-01-01T05:43:21.041Z,2.30
2023-01-01T05:45:48.910Z,2.45
2023-01-01T05:48:15.613Z,2.20
2023-01-01T05:50:42.032Z,2.08
2023-01-01T05:53:08.462Z,2.05
2023-01-01T05:55:34.805Z,2.25
2023-01-01T05:58:01.182Z,2.58
2023-01-01T06:00:27.567Z,1.75
2023-01-01T06:02:55.326Z,2.15
2023-01-01T06:05:21.736Z,2.13
2023-01-01T06:07:48.793Z,2.38
2023-01-01T06:10:15.496Z,2.13
2023-01-01T06:12:41.888Z,2.28
2023-01-01T06:15:09.217Z,2.13
2023-01-01T06:17:35.625Z,1.70
2023-01-01T06:20:03.799Z,1.80
2023-01-01T06:22:30.157Z,2.10
2023-01-01T06:24:56.490Z,2.08
2023-01-01T06:27:22.846Z,1.88
2023-01-01T06:29:49.203Z,2.50
2023-01-01T06:32:15.541Z,1.90
2023-01-01T06:34:41.894Z,1.70
2023-01-01T06:37:09.617Z,1.70
2023-01-01T06:39:35.979Z,1.80
2023-01-01T06:42:04.491Z,1.52
2023-01-01T06:44:30.853Z,1.90
2023-01-01T06:46:57.204Z,1.70
2023-01-01T06:49:23.643Z,1.60
2023-01-01T06:51:50.050Z,2.05
2023-01-01T06:54:19.602Z,2.10
2023-01-01T06:56:45.978Z,2.20
2023-01-01T06:59:12.358Z,1.65
2023-01-01T07:01:39.296Z,2.00
2023-01-01T07:04:07.791Z,1.48
2023-01-01T07:06:35.187Z,1.83
2023-01-01T07:09:01.941Z,2.47
2023-01-01T07:11:29.739Z,1.73
2023-01-01T07:13:56.250Z,1.85
2023-01-01T07:16:23.585Z,1.83
2023-01-01T07:18:50.268Z,1.52
2023-01-01T07:21:29.297Z,2.08
2023-01-01T07:23:56.527Z,2.03
2023-01-01T07:26:23.816Z,1.42
2023-01-01T07:28:51.847Z,1.80
2023-01-01T07:31:18.329Z,1.65
2023-01-01T07:33:45.885Z,2.03
2023-01-01T07:36:12.294Z,1.65
2023-01-01T07:38:38.714Z,1.70
2023-01-01T07:41:05.282Z,1.75
2023-01-01T07:43:31.778Z,1.58
2023-01-01T07:45:59.892Z,1.80
2023-01-01T07:48:26.674Z,1.55
2023-01-01T07:50:53.056Z,1.73
2023-01-01T07:53:19.456Z,1.92
2023-01-01T07:55:45.865Z,1.48
2023-01-01T07:58:13.725Z,2.20
2023-01-01T08:00:40.390Z,1.98
2023-01-01T08:03:09.428Z,2.40
2023-01-01T08:05:37.788Z,2.15
2023-01-01T08:08:04.503Z,1.90
2023-01-01T08:10:30.958Z,1.75
2023-01-01T08:12:59.970Z,1.88
2023-01-01T08:15:26.381Z,1.90
2023-01-01T08:17:56.121Z,1.95
2023-01-01T08:20:24.044Z,2.42
2023-01-01T08:22:50.406Z,1.83
2023-01-01T08:25:16.755Z,1.85
2023-01-01T08:27:43.124Z,1.80
2023-01-01T08:30:11.647Z,1.98
2023-01-01T08:32:38.143Z,1.60
2023-01-01T08:35:05.414Z,2.08
2023-01-01T08:37:33.182Z,1.70
2023-01-01T08:39:59.539Z,1.60
2023-01-01T08:42:25.942Z,1.98
2023-01-01T08:44:54.025Z,1.77
2023-01-01T08:47:22.168Z,1.75
2023-01-01T08:49:48.943Z,2.78
2023-01-01T08:52:15.712Z,1.42
2023-01-01T08:54:43.483Z,1.70
2023-01-01T08:57:10.763Z,1.50
2023-01-01T08:59:37.376Z,1.50
2023-01-01T09:02:03.925Z,1.77
2023-01-01T09:04:30.819Z,1.80
2023-01-01T09:06:57.407Z,1.77
2023-01-01T09:09:29.287Z,1.63
2023-01-01T09:12:01.042Z,2.30
2023-01-01T09:14:27.375Z,1.88
2023-01-01T09:16:53.731Z,1.80
2023-01-01T09:19:20.195Z,2.13
2023-01-01T09:21:46.585Z,1.50
2023-01-01T09:24:13.029Z,2.28
2023-01-01T09:26:39.394Z,1.48
2023-01-01T09:29:07.097Z,2.05
2023-01-01T09:31:33.516Z,2.00
2023-01-01T09:33:59.889Z,1.90
2023-01-01T09:36:31.873Z,1.50
2023-01-01T09:38:59.619Z,1.55
2023-01-01T09:41:43.335Z,2.40
2023-01-01T09:44:22.684Z,1.65
2023-01-01T09:46:49.587Z,1.88
2023-01-01T09:49:21.446Z,2.00
2023-01-01T09:51:57.945Z,1.60
2023-01-01T09:54:28.686Z,1.50
2023-01-01T09:56:57.289Z,1.15
2023-01-01T09:59:25.359Z,1.58
2023-01-01T10:01:57.102Z,1.55
2023-01-01T10:04:37.374Z,2.00
2023-01-01T10:07:12.157Z,1.80
2023-01-01T10:09:47.612Z,1.70
2023-01-01T10:12:23.665Z,2.00
2023-01-01T10:15:00.723Z,1.95
2023-01-01T10:17:34.256Z,2.10
2023-01-01T10:20:03.926Z,2.10
2023-01-01T10:22:35.944Z,2.10
2023-01-01T10:25:08.842Z,2.60
2023-01-01T10:27:39.282Z,1.70
2023-01-01T10:30:15.220Z,2.55
2023-01-01T10:32:41.685Z,2.50
2023-01-01T10:35:13.309Z,2.55
2023-01-01T10:37:40.173Z,2.53
2023-01-01T10:40:15.045Z,2.60
2023-01-01T10:42:41.458Z,2.13
2023-01-01T10:45:14.000Z,2.33
2023-01-01T10:48:00.801Z,2.47
2023-01-01T10:50:42.058Z,2.58
2023-01-01T10:53:20.762Z,2.05
2023-01-01T10:55:49.593Z,2.72
2023-01-01T10:58:26.850Z,2.20
2023-01-01T11:01:00.539Z,2.47
2023-01-01T11:03:27.116Z,2.20
2023-01-01T11:06:05.589Z,1.95
2023-01-01T11:08:34.816Z,2.45
2023-01-01T11:11:03.172Z,1.90
2023-01-01T11:13:31.083Z,2.35
2023-01-01T11:15:59.576Z,3.28
2023-01-01T11:18:29.335Z,3.08
2023-01-01T11:20:59.339Z,2.30
2023-01-01T11:23:32.000Z,3.05
2023-01-01T11:26:03.540Z,2.80
2023-01-01T11:28:31.842Z,3.35
2023-01-01T11:31:03.277Z,2.97
2023-01-01T11:33:32.353Z,2.45
2023-01-01T11:35:59.358Z,2.03
2023-01-01T11:38:29.794Z,2.30
2023-01-01T11:41:03.920Z,2.20
2023-01-01T11:46:07.707Z,1.50
2023-01-01T11:48:34.946Z,1.57
2023-01-01T11:51:03.907Z,2.22
2023-01-01T11:53:31.779Z,1.70
2023-01-01T11:56:04.856Z,1.50
2023-01-01T11:58:37.351Z,1.67
2023-01-01T12:01:11.615Z,1.73
2023-01-01T12:03:41.189Z,1.88
2023-01-01T12:06:15.393Z,1.52
2023-01-01T12:08:48.007Z,1.77
2023-01-01T12:11:23.610Z,2.00
2023-01-01T12:13:55.924Z,1.60
2023-01-01T12:16:42.960Z,1.55
2023-01-01T12:19:15.211Z,1.45
2023-01-01T12:21:49.084Z,1.38
2023-01-01T12:24:19.103Z,1.60
2023-01-01T12:27:01.053Z,1.67
2023-01-01T12:29:46.349Z,1.50
2023-01-01T12:32:21.076Z,1.65
2023-01-01T12:34:58.386Z,2.30
2023-01-01T12:37:37.197Z,2.00
2023-01-01T12:40:38.785Z,1.65
2023-01-01T12:43:10.634Z,1.50
2023-01-01T12:46:11.384Z,3.08
2023-01-01T12:48:54.233Z,2.03
2023-01-01T12:51:30.865Z,1.92
2023-01-01T12:54:11.529Z,1.55
2023-01-01T12:56:43.124Z,2.03
2023-01-01T12:59:13.093Z,2.10
2023-01-01T13:01:40.854Z,2.17
2023-01-01T13:04:12.484Z,2.22
2023-01-01T13:06:43.744Z,1.90
2023-01-01T13:09:14.982Z,2.00
2023-01-01T13:11:45.371Z,1.98
2023-01-01T13:14:12.626Z,2.08
2023-01-01T13:16:41.130Z,2.83
2023-01-01T13:19:25.230Z,2.97
2023-01-01T13:21:51.655Z,2.47
2023-01-01T13:24:23.276Z,3.08
2023-01-01T13:26:50.217Z,2.83
2023-01-01T13:29:44.813Z,2.70
2023-01-01T13:32:13.291Z,2.72
2023-01-01T13:35:00.471Z,2.80
2023-01-01T13:37:51.957Z,3.72
2023-01-01T13:40:51.656Z,3.47
2023-01-01T13:43:25.354Z,3.35
2023-01-01T13:48:50.276Z,3.38
2023-01-01T13:52:05.294Z,3.22
2023-01-01T13:55:05.815Z,3.55
2023-01-01T13:57:59.651Z,3.60
2023-01-01T14:00:35.707Z,3.47
2023-01-01T14:03:08.114Z,3.67
2023-01-01T14:05:38.966Z,3.05
2023-01-01T14:08:11.559Z,3.58
2023-01-01T14:10:49.366Z,3.15
2023-01-01T14:13:17.287Z,3.20
2023-01-01T14:15:52.996Z,3.72
2023-01-01T14:18:22.609Z,3.40
2023-01-01T14:20:51.148Z,4.00
2023-01-01T14:23:20.776Z,3.58
2023-01-01T14:25:48.844Z,4.88
2023-01-01T14:28:20.289Z,4.57
2023-01-01T14:30:47.145Z,4.63
2023-01-01T14:33:22.118Z,4.57
2023-01-01T14:35:52.302Z,4.47
2023-01-01T14:38:24.295Z,4.28
2023-01-01T14:41:02.661Z,4.70
2023-01-01T14:43:29.211Z,4.05
2023-01-01T14:45:55.774Z,4.47
2023-01-01T14:48:22.230Z,4.47
2023-01-01T14:50:51.824Z,4.50
2023-01-01T14:53:21.009Z,4.20
2023-01-01T14:55:49.396Z,4.18
2023-01-01T14:58:19.551Z,4.60
2023-01-01T15:00:46.449Z,4.43
2023-01-01T15:03:15.195Z,4.03
2023-01-01T15:05:42.703Z,3.33
2023-01-01T15:08:23.092Z,4.18
2023-01-01T15:10:49.925Z,4.30
2023-01-01T15:13:20.360Z,3.90
2023-01-01T15:15:48.258Z,4.15
2023-01-01T15:18:37.246Z,4.78
2023-01-01T15:21:07.170Z,14.43
2023-01-01T15:23:34.326Z,17.80
2023-01-01T15:26:00.728Z,12.18
2023-01-01T15:28:28.939Z,24.98
2023-01-01T15:30:57.412Z,20.65
2023-01-01T15:33:24.095Z,17.85
2023-01-01T15:35:52.500Z,19.77
2023-01-01T15:38:22.496Z,20.23
2023-01-01T15:40:53.335Z,22.38
2023-01-01T15:43:22.925Z,9.82
2023-01-01T15:45:59.038Z,8.05
2023-01-01T15:48:31.606Z,14.25
2023-01-01T15:51:03.228Z,14.02
2023-01-01T15:53:34.712Z,8.80
2023-01-01T15:56:04.543Z,9.52
2023-01-01T15:58:35.003Z,11.00
2023-01-01T16:01:06.260Z,9.20
2023-01-01T16:03:34.699Z,5.38
2023-01-01T16:06:01.272Z,5.60
2023-01-01T16:08:27.681Z,5.70
2023-01-01T16:10:54.072Z,5.68
2023-01-01T16:13:20.520Z,6.47
2023-01-01T16:15:51.129Z,4.00
2023-01-01T16:18:19.710Z,4.70
2023-01-01T16:20:46.519Z,4.80
2023-01-01T16:23:12.995Z,4.95
2023-01-01T16:25:39.851Z,4.22
2023-01-01T16:28:06.240Z,3.92
2023-01-01T16:30:32.785Z,4.35
2023-01-01T16:32:59.349Z,4.70
2023-01-01T16:35:27.020Z,4.32
2023-01-01T16:37:53.379Z,3.85
2023-01-01T16:40:19.795Z,4.18
2023-01-01T16:42:46.165Z,3.83
2023-01-01T16:45:17.443Z,4.65
2023-01-01T16:47:43.800Z,4.32
2023-01-01T16:50:11.178Z,4.07
2023-01-01T16:52:44.382Z,4.00
2023-01-01T16:55:11.795Z,4.15
2023-01-01T16:57:38.173Z,3.67
2023-01-01T17:00:05.337Z,4.57
2023-01-01T17:02:31.809Z,3.78
2023-01-01T17:04:58.327Z,3.95
2023-01-01T17:07:24.696Z,3.75
2023-01-01T17:09:52.499Z,3.88
2023-01-01T17:12:19.044Z,4.07
2023-01-01T17:14:45.437Z,3.92
2023-01-01T17:17:11.843Z,4.22
2023-01-01T17:19:38.199Z,4.00
2023-01-01T17:22:04.668Z,3.90
2023-01-01T17:24:31.239Z,3.92
2023-01-01T17:26:58.902Z,5.03
2023-01-01T17:29:25.653Z,5.35
2023-01-01T17:31:52.375Z,5.43
2023-01-01T17:34:18.916Z,5.30
2023-01-01T17:36:45.415Z,5.45
2023-01-01T17:39:12.985Z,6.20
2023-01-01T17:41:39.417Z,4.85
2023-01-01T17:44:07.418Z,6.13
2023-01-01T17:46:34.229Z,4.40
2023-01-01T17:49:01.580Z,5.95
2023-01-01T17:51:28.146Z,4.95
2023-01-01T17:53:55.679Z,5.13
2023-01-01T17:56:23.314Z,5.25
2023-01-01T17:58:51.528Z,4.57
2023-01-01T18:01:28.110Z,4.13
2023-01-01T18:03:56.123Z,4.43
2023-01-01T18:06:22.969Z,3.83
2023-01-01T18:08:54.428Z,4.63
2023-01-01T18:11:20.825Z,3.65
2023-01-01T18:13:47.174Z,4.32
2023-01-01T18:16:13.598Z,4.13
2023-01-01T18:18:41.517Z,4.78
2023-01-01T18:21:11.325Z,4.50
2023-01-01T18:23:40.003Z,4.07
2023-01-01T18:26:08.292Z,2.70
2023-01-01T18:28:34.730Z,3.15
2023-01-01T18:31:04.773Z,3.08
2023-01-01T18:33:31.287Z,3.60
2023-01-01T18:36:02.893Z,3.63
2023-01-01T18:38:29.250Z,4.05
2023-01-01T18:41:02.267Z,3.85
2023-01-01T18:43:28.701Z,3.70
2023-01-01T18:45:55.488Z,3.60
2023-01-01T18:48:22.104Z,3.28
2023-01-01T18:50:48.456Z,2.92
2023-01-01T18:53:18.320Z,3.65
2023-01-01T18:55:44.942Z,3.83
2023-01-01T18:58:17.047Z,4.65
2023-01-01T19:00:44.208Z,4.03
2023-01-01T19:03:13.989Z,4.40
2023-01-01T19:05:40.505Z,4.20
2023-01-01T19:08:12.995Z,4.05
2023-01-01T19:10:43.904Z,3.70
2023-01-01T19:13:19.684Z,3.17
2023-01-01T19:15:48.307Z,3.25
2023-01-01T19:18:17.309Z,3.10
2023-01-01T19:20:44.207Z,2.80
2023-01-01T19:23:14.394Z,2.85
2023-01-01T19:25:42.066Z,2.80
2023-01-01T19:28:36.263Z,2.35
2023-01-01T19:31:04.643Z,2.88
2023-01-01T19:33:31.083Z,2.80
2023-01-01T19:35:57.958Z,2.80
2023-01-01T19:38:24.374Z,2.42
2023-01-01T19:40:52.073Z,2.97
2023-01-01T19:43:18.686Z,3.08
2023-01-01T19:45:45.049Z,3.42
2023-01-01T19:48:11.441Z,2.47
2023-01-01T19:50:38.068Z,2.88
2023-01-01T19:53:04.441Z,2.70
2023-01-01T19:55:30.857Z,2.80
2023-01-01T19:57:58.572Z,2.60
2023-01-01T20:00:25.018Z,2.75
2023-01-01T20:02:51.492Z,3.03
2023-01-01T20:05:18.109Z,2.45
2023-01-01T20:07:44.540Z,2.53
2023-01-01T20:10:11.130Z,2.17
2023-01-01T20:12:37.524Z,2.50
2023-01-01T20:15:06.917Z,2.60
2023-01-01T20:17:33.279Z,2.30
2023-01-01T20:19:59.661Z,2.42
2023-01-01T20:22:26.030Z,2.58
2023-01-01T20:24:52.520Z,1.92
2023-01-01T20:27:19.310Z,2.20
2023-01-01T20:29:45.683Z,2.65
2023-01-01T20:32:13.421Z,3.03
2023-01-01T20:34:40.302Z,3.00
2023-01-01T20:37:06.781Z,2.42
2023-01-01T20:39:33.877Z,2.90
2023-01-01T20:42:00.329Z,2.60
2023-01-01T20:44:26.796Z,2.60
2023-01-01T20:46:53.257Z,2.80
2023-01-01T20:49:21.949Z,2.97
2023-01-01T20:51:49.872Z,2.53
2023-01-01T20:54:16.384Z,2.58
2023-01-01T20:56:45.136Z,2.70
2023-01-01T20:59:31.781Z,2.30
2023-01-01T21:01:58.166Z,2.63
2023-01-01T21:04:26.032Z,2.78
2023-01-01T21:06:52.405Z,2.80
2023-01-01T21:09:18.807Z,2.60
2023-01-01T21:11:45.628Z,3.17
2023-01-01T21:14:12.011Z,3.22
2023-01-01T21:16:42.042Z,2.92
2023-01-01T21:19:09.248Z,2.80
2023-01-01T21:21:42.431Z,3.25
2023-01-01T21:24:18.406Z,3.00
2023-01-01T21:26:44.825Z,3.05
2023-01-01T21:29:14.605Z,3.40
2023-01-01T21:31:41.324Z,3.35
2023-01-01T21:34:22.158Z,3.03
2023-01-01T21:36:49.963Z,3.10
2023-01-01T21:39:18.191Z,3.13
2023-01-01T21:41:44.670Z,3.78
2023-01-01T21:44:13.388Z,3.38
2023-01-01T21:46:39.961Z,3.30
2023-01-01T21:49:16.791Z,3.33
2023-01-01T21:51:48.954Z,3.10
2023-01-01T21:54:21.970Z,3.00
2023-01-01T21:56:53.022Z,2.97
2023-01-01T21:59:43.083Z,3.20
2023-01-01T22:02:30.556Z,3.42
2023-01-01T22:04:59.832Z,3.55
2023-01-01T22:10:18.418Z,3.55
2023-01-01T22:12:45.869Z,3.95
2023-01-01T22:15:38.515Z,3.67
2023-01-01T22:18:21.310Z,3.38
2023-01-01T22:20:47.691Z,3.85
2023-01-01T22:23:23.340Z,3.65
2023-01-01T22:25:51.576Z,3.88
2023-01-01T22:28:21.500Z,3.60
2023-01-01T22:30:49.627Z,4.15
2023-01-01T22:33:18.275Z,4.03
2023-01-01T22:35:44.909Z,3.53
2023-01-01T22:38:16.053Z,4.22
2023-01-01T22:40:42.849Z,3.65
2023-01-01T22:43:17.540Z,4.35
2023-01-01T22:45:46.963Z,4.95
2023-01-01T22:48:19.413Z,4.40
2023-01-01T22:50:45.916Z,3.85
2023-01-01T22:53:12.273Z,4.03
2023-01-01T22:55:38.632Z,3.97
2023-01-01T22:58:05.012Z,4.03
2023-01-01T23:00:32.876Z,4.43
2023-01-01T23:02:59.297Z,3.90
2023-01-01T23:05:25.794Z,4.57
2023-01-01T23:07:52.871Z,4.28
2023-01-01T23:10:19.290Z,4.60
2023-01-01T23:12:45.633Z,3.92
2023-01-01T23:15:12.315Z,4.20
2023-01-01T23:17:40.124Z,4.78
2023-01-01T23:20:08.433Z,4.68
2023-01-01T23:22:38.676Z,4.57
2023-01-01T23:25:07.668Z,4.80
2023-01-01T23:27:34.369Z,5.63
2023-01-01T23:30:02.049Z,5.07
2023-01-01T23:32:29.420Z,5.05
2023-01-01T23:34:57.426Z,4.32
2023-01-01T23:37:25.323Z,4.82
2023-01-01T23:39:51.898Z,5.07
2023-01-01T23:42:18.587Z,4.93
2023-01-01T23:44:52.445Z,5.65
2023-01-01T23:47:18.816Z,6.13
2023-01-01T23:49:45.165Z,4.45
2023-01-01T23:52:13.005Z,4.35
2023-01-01T23:54:41.946Z,4.40
2023-01-01T23:57:08.296Z,5.57
2023-01-01T23:59:34.710Z,4.97
